Time;durP1;ratioP1;P1;durP2;ratioP2;P2;SDS_P1;SDS_P2;PMS_P1;PMS_P2;Temp;Humidity;BMP_temperature;BMP_pressure;BME280_temperature;BME280_humidity;BME280_pressure;Samples;Min_cycle;Max_cycle;Signal;HPM_P1;HPM_P2
2023/01/28 00:00:28;;;;;;;13.13;7.30;;;;;;;9.96;46.38;103098.56;5048225;28;20495;-72
2023/01/28 00:02:53;;;;;;;9.97;6.60;;;;;;;9.95;46.97;103099.41;5049828;28;20029;-72
2023/01/28 00:05:19;;;;;;;11.50;6.97;;;;;;;10.10;46.96;103098.94;5050245;28;20090;-72
2023/01/28 00:07:47;;;;;;;11.83;7.40;;;;;;;10.19;46.24;103098.31;5048771;28;20214;-72
2023/01/28 00:10:13;;;;;;;11.77;7.23;;;;;;;10.40;45.61;103097.16;5044393;28;20036;-71
2023/01/28 00:12:38;;;;;;;12.47;7.53;;;;;;;9.56;46.27;103110.44;5049140;28;20048;-72
2023/01/28 00:15:04;;;;;;;12.57;7.30;;;;;;;10.60;44.84;103101.19;5048560;28;20111;-72
2023/01/28 00:17:30;;;;;;;11.33;6.90;;;;;;;10.91;44.03;103104.59;5047841;28;20112;-72
2023/01/28 00:19:55;;;;;;;10.40;6.53;;;;;;;10.22;45.74;103113.19;5049051;28;20241;-71
2023/01/28 00:22:21;;;;;;;11.77;7.30;;;;;;;10.55;45.02;103108.06;5047277;28;20401;-72
2023/01/28 00:24:46;;;;;;;10.30;6.17;;;;;;;9.90;46.20;103103.59;5047617;28;20508;-74
2023/01/28 00:27:12;;;;;;;15.60;7.23;;;;;;;10.96;45.20;103102.97;5050006;28;20583;-71
2023/01/28 00:29:37;;;;;;;13.40;7.77;;;;;;;10.68;44.91;103094.41;5048082;28;20037;-71
2023/01/28 00:32:03;;;;;;;12.17;7.80;;;;;;;11.03;44.68;103097.03;5081555;28;20029;-71
2023/01/28 00:34:28;;;;;;;13.40;7.47;;;;;;;9.91;46.48;103102.75;5062385;28;20116;-71
2023/01/28 00:36:56;;;;;;;12.37;7.63;;;;;;;10.43;45.59;103097.25;5028886;28;20546;-71
2023/01/28 00:39:27;;;;;;;13.90;8.60;;;;;;;10.67;45.49;103097.00;5035772;28;20081;-71
2023/01/28 00:41:52;;;;;;;15.60;8.10;;;;;;;10.22;46.23;103101.03;5050017;28;20021;-71
2023/01/28 00:44:19;;;;;;;12.13;7.83;;;;;;;9.65;48.35;103100.25;5030815;28;20044;-72
2023/01/28 00:46:45;;;;;;;12.93;7.87;;;;;;;9.61;48.21;103103.63;5028856;28;20291;-71
2023/01/28 00:49:10;;;;;;;13.17;7.63;;;;;;;9.73;47.49;103112.69;5034468;28;20058;-71
2023/01/28 00:51:36;;;;;;;14.53;7.40;;;;;;;9.61;48.34;103113.19;5048364;28;20037;-71
2023/01/28 00:54:02;;;;;;;12.63;7.60;;;;;;;9.90;47.31;103095.75;5048032;28;20037;-71
2023/01/28 00:56:27;;;;;;;14.63;7.60;;;;;;;10.73;45.33;103091.03;5046407;28;20044;-71
2023/01/28 00:58:53;;;;;;;13.60;7.40;;;;;;;10.55;46.15;103104.53;5047119;28;20025;-71
2023/01/28 01:01:22;;;;;;;13.90;8.47;;;;;;;10.23;46.51;103101.91;5048175;28;20025;-71
2023/01/28 01:03:56;;;;;;;13.73;7.33;;;;;;;9.92;47.44;103099.31;5039567;28;20029;-71
2023/01/28 01:06:22;;;;;;;12.27;7.40;;;;;;;10.16;47.16;103103.47;5048975;28;20060;-71
2023/01/28 01:08:49;;;;;;;12.73;7.67;;;;;;;10.23;47.28;103105.38;5084260;28;20036;-71
2023/01/28 01:11:15;;;;;;;11.97;7.30;;;;;;;9.80;47.33;103094.59;5045769;28;20028;-71
2023/01/28 01:13:41;;;;;;;13.13;8.20;;;;;;;9.66;47.78;103102.03;5031872;28;20040;-71
2023/01/28 01:16:14;;;;;;;14.37;7.27;;;;;;;9.58;47.77;103106.16;5047608;28;20396;-71
2023/01/28 01:18:40;;;;;;;14.07;7.93;;;;;;;9.01;47.83;103106.94;5084800;28;20124;-71
2023/01/28 01:21:11;;;;;;;12.90;7.93;;;;;;;10.26;46.15;103100.28;5051631;28;20037;-73
2023/01/28 01:23:37;;;;;;;12.53;7.57;;;;;;;10.52;44.85;103103.63;5051150;28;20043;-71
2023/01/28 01:26:04;;;;;;;12.97;7.60;;;;;;;10.32;45.56;103104.78;5043078;28;20037;-71
2023/01/28 01:28:30;;;;;;;12.27;7.03;;;;;;;10.22;45.53;103100.13;5047647;28;20026;-71
2023/01/28 01:31:20;;;;;;;13.90;7.70;;;;;;;9.59;46.16;103105.31;5065035;28;20032;-71
2023/01/28 01:33:47;;;;;;;14.53;8.00;;;;;;;10.43;44.91;103098.13;5049841;28;20497;-71
2023/01/28 01:36:16;;;;;;;14.77;8.53;;;;;;;11.09;43.76;103092.81;5041439;28;20065;-71
2023/01/28 01:38:41;;;;;;;11.57;6.97;;;;;;;11.00;43.54;103098.69;5036521;28;20131;-73
2023/01/28 01:41:08;;;;;;;12.93;8.10;;;;;;;9.94;44.60;103097.63;5051775;28;20029;-74
2023/01/28 01:43:55;;;;;;;15.23;8.27;;;;;;;10.82;44.07;103091.28;5049818;28;20070;-74
2023/01/28 01:46:31;;;;;;;13.33;7.57;;;;;;;10.92;43.67;103088.06;5039929;28;20473;-72
2023/01/28 01:49:05;;;;;;;12.43;7.53;;;;;;;10.79;43.64;103091.22;5050706;28;20481;-71
2023/01/28 01:51:33;;;;;;;12.33;7.63;;;;;;;11.02;43.36;103095.25;5050941;28;20074;-71
2023/01/28 01:54:00;;;;;;;14.27;8.67;;;;;;;10.86;42.90;103090.50;5048453;28;20155;-73
2023/01/28 01:56:32;;;;;;;15.97;9.03;;;;;;;10.89;43.56;103098.41;5049605;28;20156;-72
2023/01/28 01:58:58;;;;;;;12.52;7.90;;;;;;;10.65;43.35;103099.59;5050767;28;20029;-71
2023/01/28 02:01:28;;;;;;;15.50;8.60;;;;;;;10.80;43.21;103098.22;5051269;28;20025;-71
2023/01/28 02:04:14;;;;;;;12.43;7.40;;;;;;;11.07;43.31;103097.09;5049211;28;20035;-71
2023/01/28 02:06:40;;;;;;;15.60;8.10;;;;;;;11.50;42.81;103087.66;5033350;28;20382;-70
2023/01/28 02:09:23;;;;;;;12.00;7.70;;;;;;;10.06;43.85;103101.44;5050522;28;20390;-71
2023/01/28 02:11:50;;;;;;;14.75;8.32;;;;;;;10.26;44.21;103099.38;5051177;28;20029;-71
2023/01/28 02:14:16;;;;;;;12.73;8.00;;;;;;;11.01;42.87;103093.50;5049637;28;20039;-71
2023/01/28 02:16:41;;;;;;;12.90;7.70;;;;;;;10.78;43.85;103089.44;5049715;28;20032;-71
2023/01/28 02:19:08;;;;;;;12.50;7.73;;;;;;;10.82;44.11;103083.44;5051888;28;20028;-71
2023/01/28 02:21:52;;;;;;;14.30;8.37;;;;;;;10.76;44.19;103096.38;5050405;28;20081;-71
2023/01/28 02:24:33;;;;;;;13.03;8.07;;;;;;;10.82;43.71;103096.50;5051216;28;20029;-71
2023/01/28 02:27:23;;;;;;;12.47;7.87;;;;;;;10.93;44.33;103100.28;5040624;28;20054;-71
2023/01/28 02:30:12;;;;;;;13.37;7.90;;;;;;;10.70;43.89;103107.53;5042752;28;20021;-71
2023/01/28 02:33:24;;;;;;;13.60;8.03;;;;;;;10.96;43.87;103116.06;5050041;28;20036;-71
2023/01/28 02:35:53;;;;;;;14.47;8.73;;;;;;;11.12;43.20;103113.81;5049106;28;20044;-71
2023/01/28 02:38:28;;;;;;;13.03;8.53;;;;;;;10.31;44.23;103124.78;5029258;28;20125;-71
2023/01/28 02:41:01;;;;;;;11.90;7.47;;;;;;;11.07;43.47;103123.28;5040924;28;20146;-71
2023/01/28 02:43:29;;;;;;;15.20;8.57;;;;;;;10.99;43.73;103121.38;5035365;28;20089;-71
2023/01/28 02:48:39;;;;;;;14.77;8.77;;;;;;;9.86;45.51;103125.25;5037702;28;20137;-71
2023/01/28 02:51:31;;;;;;;14.17;7.97;;;;;;;10.75;44.36;103105.06;5029984;28;20520;-71
2023/01/28 02:54:07;;;;;;;14.70;8.65;;;;;;;10.87;44.59;103102.75;5036109;28;20040;-71
2023/01/28 02:56:51;;;;;;;15.53;8.77;;;;;;;10.58;45.06;103107.22;5049775;28;20064;-71
2023/01/28 02:59:35;;;;;;;14.60;8.70;;;;;;;10.80;45.14;103103.44;5078681;28;20028;-71
2023/01/28 03:02:19;;;;;;;14.20;8.83;;;;;;;10.45;45.72;103111.25;5043996;28;20104;-71
2023/01/28 03:05:06;;;;;;;15.27;8.50;;;;;;;9.81;45.65;103113.81;5030121;28;20044;-71
2023/01/28 03:07:35;;;;;;;12.60;7.83;;;;;;;10.45;45.09;103111.25;5032737;28;20057;-70
2023/01/28 03:10:04;;;;;;;15.47;8.60;;;;;;;9.81;46.59;103116.41;5034567;28;20473;-71
2023/01/28 03:37:59;;;;;;;10.27;6.20;;;;;;;8.87;47.74;103118.66;5049040;28;20048;-71
2023/01/28 03:40:25;;;;;;;9.03;5.90;;;;;;;9.15;46.54;103123.09;5046234;28;20336;-72
2023/01/28 03:42:51;;;;;;;8.63;5.97;;;;;;;9.12;46.27;103117.75;5048655;28;20380;-72
2023/01/28 03:45:16;;;;;;;9.07;5.80;;;;;;;10.04;44.91;103118.78;5039684;28;20064;-71
2023/01/28 03:47:43;;;;;;;10.37;6.40;;;;;;;9.78;45.19;103116.28;5028984;28;20025;-72
2023/01/28 03:50:09;;;;;;;10.43;5.90;;;;;;;9.57;45.81;103114.81;5042309;28;20029;-71
2023/01/28 03:52:34;;;;;;;7.20;5.30;;;;;;;10.71;43.26;103103.22;5049047;28;20033;-72
2023/01/28 03:55:00;;;;;;;7.27;4.80;;;;;;;9.78;44.89;103108.47;5047813;28;20035;-72
2023/01/28 03:57:27;;;;;;;5.73;4.00;;;;;;;9.76;44.01;103112.78;5048493;28;20032;-72
2023/01/28 03:59:52;;;;;;;6.57;4.63;;;;;;;9.70;44.20;103112.56;5040844;28;20057;-71
2023/01/28 04:02:22;;;;;;;6.93;4.43;;;;;;;9.64;44.98;103119.41;5045578;28;20091;-71
2023/01/28 04:04:49;;;;;;;6.20;4.63;;;;;;;9.06;46.03;103133.22;5047622;28;20445;-71
2023/01/28 04:07:14;;;;;;;6.03;4.50;;;;;;;9.13;46.26;103145.63;5049793;28;20528;-72
2023/01/28 04:09:40;;;;;;;6.80;4.10;;;;;;;9.68;45.03;103147.38;5080953;28;20029;-71
2023/01/28 04:12:06;;;;;;;6.80;3.80;;;;;;;9.76;44.21;103138.88;5049604;28;20029;-71
2023/01/28 04:14:32;;;;;;;6.30;4.27;;;;;;;9.84;44.70;103147.84;5048026;28;20035;-72
2023/01/28 04:16:58;;;;;;;5.97;4.60;;;;;;;9.45;45.08;103146.66;5048157;28;20079;-72
2023/01/28 04:19:24;;;;;;;6.83;4.70;;;;;;;9.74;44.63;103140.56;5038866;28;20029;-72
2023/01/28 04:21:52;;;;;;;8.23;5.00;;;;;;;10.02;44.42;103137.91;5034945;28;20016;-72
2023/01/28 04:24:18;;;;;;;6.83;4.53;;;;;;;9.74;45.20;103143.16;5047286;28;20028;-71
2023/01/28 04:26:44;;;;;;;6.53;4.50;;;;;;;8.99;46.81;103153.88;5029330;28;20370;-72
2023/01/28 04:29:09;;;;;;;6.90;4.10;;;;;;;8.95;46.45;103156.34;5045673;28;20048;-71
2023/01/28 04:31:34;;;;;;;6.57;4.07;;;;;;;8.85;47.09;103162.06;5046824;28;20021;-72
2023/01/28 04:34:00;;;;;;;10.30;4.93;;;;;;;8.78;46.74;103159.25;5047159;28;20024;-72
2023/01/28 04:36:26;;;;;;;5.63;4.00;;;;;;;8.99;46.99;103159.09;5047808;28;20043;-72
2023/01/28 04:38:51;;;;;;;7.17;4.70;;;;;;;9.68;45.05;103157.84;5050069;28;20033;-72
2023/01/28 04:41:16;;;;;;;7.20;4.67;;;;;;;9.62;44.69;103147.19;5047936;28;20013;-72
2023/01/28 04:43:42;;;;;;;7.70;4.20;;;;;;;9.27;45.60;103149.56;5051895;28;20433;-72
2023/01/28 04:46:08;;;;;;;5.33;3.90;;;;;;;9.58;45.00;103150.53;5033128;28;20107;-72
2023/01/28 04:48:35;;;;;;;5.93;4.20;;;;;;;10.05;44.14;103141.47;5052415;28;20024;-72
2023/01/28 04:51:01;;;;;;;5.63;4.17;;;;;;;9.65;43.57;103136.81;5052593;28;20029;-72
2023/01/28 04:53:26;;;;;;;5.33;4.10;;;;;;;9.72;43.53;103127.44;5051719;28;20025;-72
2023/01/28 04:55:52;;;;;;;6.47;4.23;;;;;;;9.63;43.65;103122.84;5044867;28;20529;-72
2023/01/28 04:58:17;;;;;;;7.20;3.80;;;;;;;10.10;43.35;103129.44;5048032;28;20029;-72
2023/01/28 05:00:42;;;;;;;6.07;4.20;;;;;;;9.66;43.70;103133.38;5065835;28;20052;-72
2023/01/28 05:03:08;;;;;;;5.63;4.33;;;;;;;8.81;45.62;103143.69;5044932;28;20023;-72
2023/01/28 05:05:33;;;;;;;5.37;3.90;;;;;;;9.83;44.60;103133.00;5042997;28;20082;-72
2023/01/28 05:07:59;;;;;;;5.70;3.67;;;;;;;9.81;43.13;103132.09;5051494;28;20040;-72
2023/01/28 05:10:25;;;;;;;7.70;4.30;;;;;;;8.48;44.96;103144.28;5051906;28;20032;-72
2023/01/28 05:12:51;;;;;;;4.87;3.67;;;;;;;9.68;43.88;103136.94;5049601;28;20052;-72
2023/01/28 05:15:17;;;;;;;6.37;4.30;;;;;;;10.09;42.39;103138.09;5044069;28;20028;-72
2023/01/28 05:17:43;;;;;;;4.60;3.87;;;;;;;10.06;42.46;103158.94;5049883;28;20447;-71
2023/01/28 05:20:10;;;;;;;5.90;3.70;;;;;;;10.01;42.75;103146.63;5084263;28;20021;-72
2023/01/28 05:22:36;;;;;;;7.80;4.23;;;;;;;9.56;43.60;103141.78;5052809;28;20017;-71
2023/01/28 05:25:03;;;;;;;5.47;3.90;;;;;;;10.39;42.91;103145.09;5050683;28;20028;-72
2023/01/28 05:27:29;;;;;;;6.87;4.10;;;;;;;10.65;42.09;103145.78;5038075;28;20083;-72
2023/01/28 05:29:55;;;;;;;7.60;4.40;;;;;;;10.36;42.61;103148.50;5044844;28;20025;-71
2023/01/28 05:32:20;;;;;;;5.23;3.90;;;;;;;9.64;43.69;103145.53;5032938;28;20029;-72
2023/01/28 05:34:46;;;;;;;5.30;4.00;;;;;;;9.78;44.11;103137.19;5030911;28;20437;-72
2023/01/28 05:37:11;;;;;;;5.47;4.10;;;;;;;9.50;44.10;103134.63;5047263;28;20116;-71
2023/01/28 05:39:36;;;;;;;7.33;4.13;;;;;;;10.28;43.50;103145.63;5051232;28;20460;-72
2023/01/28 05:42:02;;;;;;;5.27;3.87;;;;;;;10.00;43.18;103139.63;5042561;28;20029;-72
2023/01/28 05:44:27;;;;;;;6.07;4.30;;;;;;;10.01;42.86;103130.03;5083938;28;20155;-71
2023/01/28 05:46:53;;;;;;;7.40;4.00;;;;;;;9.48;44.25;103125.00;5050509;28;20492;-71
2023/01/28 05:49:18;;;;;;;5.80;3.93;;;;;;;9.62;43.90;103131.50;5050086;28;20111;-72
2023/01/28 05:51:43;;;;;;;8.53;5.03;;;;;;;9.78;42.38;103134.56;5050420;28;20029;-71
2023/01/28 05:54:09;;;;;;;8.53;4.53;;;;;;;9.72;43.91;103134.41;5049583;28;20025;-72
2023/01/28 05:56:35;;;;;;;5.30;3.77;;;;;;;9.77;43.00;103136.31;5049789;28;20040;-72
2023/01/28 05:59:02;;;;;;;5.77;4.03;;;;;;;10.04;42.58;103134.47;5052629;28;20028;-72
2023/01/28 06:01:28;;;;;;;9.73;4.53;;;;;;;9.57;43.71;103125.25;5049578;28;20024;-71
2023/01/28 06:03:53;;;;;;;6.40;4.43;;;;;;;10.06;43.39;103136.28;5038246;28;20500;-72
2023/01/28 06:06:19;;;;;;;7.23;4.63;;;;;;;9.55;43.27;103140.00;5030936;28;20028;-71
2023/01/28 06:08:44;;;;;;;7.60;4.93;;;;;;;9.95;43.12;103141.19;5034775;28;20056;-72
2023/01/28 06:11:10;;;;;;;6.63;4.20;;;;;;;9.60;44.39;103141.03;5049259;28;20037;-72
2023/01/28 06:13:36;;;;;;;7.03;4.40;;;;;;;9.96;43.47;103142.97;5039771;28;20029;-72
2023/01/28 06:16:02;;;;;;;6.53;4.33;;;;;;;9.56;43.92;103141.78;5032011;28;20489;-72
2023/01/28 06:18:27;;;;;;;7.93;4.73;;;;;;;9.15;44.60;103150.06;5081065;28;20067;-72
2023/01/28 06:20:53;;;;;;;8.77;4.23;;;;;;;9.81;42.97;103142.53;5042964;28;20033;-72
2023/01/28 06:23:18;;;;;;;9.83;5.43;;;;;;;10.25;42.82;103135.09;5031128;28;20029;-72
2023/01/28 06:25:44;;;;;;;6.00;4.33;;;;;;;10.21;42.77;103141.06;5032333;28;20089;-72
2023/01/28 06:28:09;;;;;;;7.53;4.83;;;;;;;10.48;41.45;103140.09;5030879;28;20469;-72
2023/01/28 06:30:34;;;;;;;7.67;4.97;;;;;;;9.56;43.63;103152.22;5029766;28;20584;-71
2023/01/28 06:33:00;;;;;;;7.17;4.80;;;;;;;9.62;43.23;103157.63;5038003;28;20078;-72
2023/01/28 06:35:25;;;;;;;7.20;4.70;;;;;;;9.96;42.96;103163.88;5050798;28;20400;-72
2023/01/28 06:37:52;;;;;;;7.00;4.50;;;;;;;9.81;42.81;103166.03;5051252;28;20036;-71
2023/01/28 06:40:18;;;;;;;7.70;4.77;;;;;;;9.74;43.97;103161.44;5050115;28;20036;-72
2023/01/28 06:42:43;;;;;;;7.53;4.87;;;;;;;9.39;44.08;103159.50;5048009;28;20475;-71
2023/01/28 06:45:09;;;;;;;7.23;4.90;;;;;;;9.56;43.66;103152.22;5048283;28;20036;-71
2023/01/28 06:47:37;;;;;;;7.77;4.90;;;;;;;10.20;42.88;103154.97;5056203;28;20085;-72
2023/01/28 06:50:02;;;;;;;8.40;4.70;;;;;;;9.36;43.47;103163.75;5051031;28;20467;-71
2023/01/28 06:52:28;;;;;;;7.23;4.93;;;;;;;9.37;43.64;103165.50;5037571;28;20037;-72
2023/01/28 06:54:53;;;;;;;8.67;5.80;;;;;;;9.65;43.01;103162.06;5063487;28;20604;-72
2023/01/28 06:57:18;;;;;;;7.63;5.20;;;;;;;10.00;42.49;103167.44;5044743;28;20024;-72
2023/01/28 06:59:44;;;;;;;8.30;5.67;;;;;;;9.42;44.11;103163.94;5031380;28;20056;-71
2023/01/28 07:02:10;;;;;;;10.33;5.37;;;;;;;10.04;42.82;103168.44;5034371;28;20385;-72
2023/01/28 07:04:36;;;;;;;7.83;4.83;;;;;;;10.01;42.81;103159.69;5029392;28;20408;-71
2023/01/28 07:07:01;;;;;;;7.63;5.07;;;;;;;9.80;43.01;103157.31;5029453;28;20128;-72
2023/01/28 07:09:27;;;;;;;10.80;6.53;;;;;;;10.08;42.48;103172.91;5029552;28;20048;-72
2023/01/28 07:11:52;;;;;;;11.13;6.57;;;;;;;9.10;44.49;103169.00;5041934;28;20487;-72
2023/01/28 07:14:17;;;;;;;8.73;6.23;;;;;;;9.18;43.46;103164.94;5048950;28;20024;-72
2023/01/28 07:16:43;;;;;;;12.67;6.37;;;;;;;9.87;43.63;103168.81;5049023;28;20029;-72
2023/01/28 07:19:08;;;;;;;9.80;7.00;;;;;;;10.08;43.37;103176.41;5044834;28;20021;-71
2023/01/28 07:21:33;;;;;;;9.73;6.03;;;;;;;9.75;43.30;103173.69;5046654;28;20028;-72
2023/01/28 07:23:59;;;;;;;14.27;7.83;;;;;;;9.25;43.75;103172.13;5049403;28;20043;-72
2023/01/28 07:26:24;;;;;;;9.23;6.07;;;;;;;9.65;43.16;103183.81;5049136;28;20036;-72
2023/01/28 07:28:49;;;;;;;6.80;4.87;;;;;;;9.82;43.08;103180.84;5048478;28;20507;-72
2023/01/28 07:31:15;;;;;;;8.30;5.37;;;;;;;10.13;43.51;103181.78;5048490;28;20056;-72
2023/01/28 07:33:40;;;;;;;7.07;5.20;;;;;;;9.96;42.91;103181.25;5048386;28;20094;-72
2023/01/28 07:36:06;;;;;;;8.57;5.60;;;;;;;9.68;43.43;103176.13;5033071;28;20028;-71
2023/01/28 07:38:31;;;;;;;13.87;5.13;;;;;;;10.35;42.61;103168.50;5066606;28;20052;-72
2023/01/28 07:40:57;;;;;;;8.47;5.40;;;;;;;10.10;42.70;103173.88;5029014;28;20378;-72
2023/01/28 07:43:22;;;;;;;9.03;5.80;;;;;;;9.53;43.37;103178.22;5029492;28;20491;-71
2023/01/28 07:45:47;;;;;;;9.63;6.23;;;;;;;9.70;42.19;103167.41;5048046;28;20031;-72
2023/01/28 07:48:13;;;;;;;9.33;5.67;;;;;;;9.78;42.99;103176.38;5047971;28;20021;-72
2023/01/28 07:50:39;;;;;;;9.03;5.53;;;;;;;9.25;43.78;103172.13;5048639;28;20032;-73
2023/01/28 07:53:10;;;;;;;13.20;6.07;;;;;;;9.78;43.83;103184.22;5049206;28;20512;-72
2023/01/28 07:55:37;;;;;;;8.50;5.60;;;;;;;9.39;44.58;103184.75;5042794;28;20480;-72
2023/01/28 07:58:04;;;;;;;10.33;6.03;;;;;;;9.42;44.08;103184.81;5080358;28;20509;-72
2023/01/28 08:00:33;;;;;;;8.10;5.20;;;;;;;9.40;43.82;103190.00;5039972;28;20017;-72
2023/01/28 08:03:01;;;;;;;7.33;5.07;;;;;;;9.52;43.81;103192.13;5074133;28;20052;-73
2023/01/28 08:05:40;;;;;;;9.60;5.10;;;;;;;9.56;43.56;103178.34;5034582;28;20083;-72
2023/01/28 08:08:07;;;;;;;8.57;5.50;;;;;;;9.58;42.90;103187.09;5047269;28;20079;-73
2023/01/28 08:10:32;;;;;;;10.20;5.77;;;;;;;9.96;43.12;103187.41;5048709;28;20032;-73
2023/01/28 08:12:58;;;;;;;9.57;5.10;;;;;;;9.93;42.78;103187.31;5048835;28;20028;-72
2023/01/28 08:15:24;;;;;;;10.40;6.43;;;;;;;10.31;41.71;103195.38;5047395;28;20051;-72
2023/01/28 08:17:49;;;;;;;10.43;6.07;;;;;;;10.10;42.47;103192.16;5041726;28;20049;-72
2023/01/28 08:20:15;;;;;;;8.33;5.77;;;;;;;9.60;43.30;103195.88;5050894;28;20037;-73
2023/01/28 08:22:41;;;;;;;8.17;5.37;;;;;;;9.75;43.06;103194.56;5051959;28;20025;-72
2023/01/28 08:25:06;;;;;;;9.97;5.53;;;;;;;9.61;43.62;103200.25;5052440;28;20388;-72
2023/01/28 08:27:32;;;;;;;10.63;5.97;;;;;;;9.66;43.28;103201.28;5051610;28;20090;-72
2023/01/28 08:29:57;;;;;;;9.80;6.10;;;;;;;10.12;42.42;103200.91;5051507;28;20063;-72
2023/01/28 08:32:22;;;;;;;7.47;5.07;;;;;;;9.82;42.72;103201.75;5052577;28;20036;-72
2023/01/28 08:34:48;;;;;;;8.37;5.47;;;;;;;9.83;42.94;103208.75;5050760;28;20029;-72
2023/01/28 08:37:13;;;;;;;9.77;5.50;;;;;;;9.86;43.15;103227.13;5048783;28;20025;-73
2023/01/28 08:39:39;;;;;;;7.93;5.30;;;;;;;9.94;42.63;103227.38;5086424;28;20044;-72
2023/01/28 08:42:05;;;;;;;8.97;5.27;;;;;;;9.86;42.87;103229.72;5050293;28;20029;-72
2023/01/28 08:44:31;;;;;;;8.03;5.07;;;;;;;9.59;43.31;103233.25;5050939;28;20040;-73
2023/01/28 08:46:57;;;;;;;7.60;5.33;;;;;;;9.54;43.23;103242.66;5053055;28;20021;-73
2023/01/28 08:49:22;;;;;;;8.37;5.40;;;;;;;9.72;43.39;103239.75;5045249;28;20108;-73
2023/01/28 08:51:48;;;;;;;9.40;5.90;;;;;;;9.66;43.41;103235.22;5065274;28;20119;-73
2023/01/28 08:54:13;;;;;;;10.67;6.33;;;;;;;9.31;43.73;103240.19;5032277;28;20022;-72
2023/01/28 08:56:41;;;;;;;10.30;6.63;;;;;;;9.23;44.52;103240.75;5049116;28;20097;-72
2023/01/28 08:59:07;;;;;;;9.20;6.30;;;;;;;9.52;43.83;103236.53;5052030;28;20033;-73
2023/01/28 09:01:32;;;;;;;12.63;6.60;;;;;;;8.85;45.20;103241.22;5049734;28;20393;-72
2023/01/28 09:03:58;;;;;;;13.37;6.67;;;;;;;8.65;45.23;103238.78;5056315;28;20053;-72
2023/01/28 09:06:23;;;;;;;10.47;6.40;;;;;;;9.09;45.14;103237.66;5051395;28;20036;-72
2023/01/28 09:08:49;;;;;;;9.63;6.07;;;;;;;9.75;43.55;103231.13;5052346;28;20029;-73
2023/01/28 09:11:14;;;;;;;10.27;5.90;;;;;;;9.34;44.25;103240.28;5076762;28;20494;-72
2023/01/28 09:13:40;;;;;;;10.57;6.60;;;;;;;9.68;43.84;103233.56;5053469;28;20075;-72
2023/01/28 09:16:05;;;;;;;11.30;6.83;;;;;;;9.62;44.34;103240.31;5037720;28;20044;-72
2023/01/28 09:18:31;;;;;;;10.40;6.30;;;;;;;9.75;43.87;103246.81;5031623;28;20170;-72
2023/01/28 09:20:56;;;;;;;13.33;6.87;;;;;;;9.43;44.25;103255.34;5032787;28;20074;-72
2023/01/28 09:23:21;;;;;;;11.77;6.83;;;;;;;9.73;44.55;103253.72;5043862;28;20055;-72
2023/01/28 09:25:47;;;;;;;13.37;8.67;;;;;;;10.27;42.78;103261.47;5045257;28;20087;-72
2023/01/28 09:28:12;;;;;;;10.63;6.23;;;;;;;9.73;43.19;103264.16;5046139;28;20029;-72
2023/01/28 09:30:38;;;;;;;11.30;6.53;;;;;;;9.87;43.30;103278.53;5048341;28;20045;-73
2023/01/28 09:33:04;;;;;;;7.90;5.93;;;;;;;9.46;43.42;103292.00;5044729;28;20477;-72
2023/01/28 09:35:30;;;;;;;13.33;7.47;;;;;;;10.64;41.86;103270.44;5049441;28;20029;-73
2023/01/28 09:37:57;;;;;;;12.33;6.27;;;;;;;10.09;42.40;103274.00;5045846;28;20078;-73
2023/01/28 09:40:34;;;;;;;12.77;6.87;;;;;;;10.25;42.25;103280.56;5052007;28;20032;-73
2023/01/28 09:43:06;;;;;;;10.23;6.20;;;;;;;9.96;42.64;103280.53;5047741;28;20544;-73
2023/01/28 09:45:31;;;;;;;9.90;6.30;;;;;;;10.22;42.05;103276.16;5044768;28;20449;-73
2023/01/28 09:47:59;;;;;;;9.27;5.93;;;;;;;10.13;41.91;103281.09;5035786;28;20483;-73
2023/01/28 09:50:35;;;;;;;12.00;6.00;;;;;;;10.65;41.01;103271.34;5050591;28;20025;-74
2023/01/28 09:53:30;;;;;;;9.33;5.77;;;;;;;10.69;41.09;103279.31;5033843;28;20021;-74
2023/01/28 09:56:25;;;;;;;14.60;6.00;;;;;;;9.99;42.33;103278.94;5031507;28;20458;-72
2023/01/28 09:58:50;;;;;;;9.10;5.63;;;;;;;9.81;42.49;103275.75;5032339;28;20033;-74
2023/01/28 10:01:41;;;;;;;10.17;5.50;;;;;;;9.81;42.52;103280.97;5039132;28;20033;-73
2023/01/28 10:04:12;;;;;;;11.00;6.30;;;;;;;9.12;43.37;103285.66;5044774;28;20029;-74
2023/01/28 10:07:04;;;;;;;10.67;5.70;;;;;;;9.28;43.16;103297.47;5030510;28;20041;-72
2023/01/28 10:09:49;;;;;;;9.27;6.03;;;;;;;10.08;41.94;103293.13;5045135;28;20040;-73
2023/01/28 10:12:36;;;;;;;9.97;5.67;;;;;;;11.25;41.31;103296.53;5052198;28;20025;-74
2023/01/28 10:15:27;;;;;;;9.30;6.13;;;;;;;12.21;37.97;103285.75;5034804;28;20048;-73
2023/01/28 10:17:59;;;;;;;8.97;5.83;;;;;;;12.34;38.38;103279.94;5044767;28;20029;-73
2023/01/28 10:20:34;;;;;;;9.57;6.13;;;;;;;13.95;36.68;103277.63;5051164;28;20033;-73
2023/01/28 10:23:10;;;;;;;9.83;6.03;;;;;;;14.32;36.27;103278.13;5051651;28;20048;-73
2023/01/28 10:25:36;;;;;;;7.93;5.30;;;;;;;12.99;36.05;103275.97;5050383;28;20674;-73
2023/01/28 10:28:13;;;;;;;7.93;5.50;;;;;;;11.96;37.47;103281.69;5042508;28;20238;-73
2023/01/28 10:30:43;;;;;;;7.63;5.37;;;;;;;12.21;37.58;103272.66;5049341;28;20032;-73
2023/01/28 10:33:26;;;;;;;10.77;5.90;;;;;;;12.29;37.20;103265.81;5038572;28;20048;-73
2023/01/28 10:35:53;;;;;;;9.20;5.53;;;;;;;11.50;39.04;103274.47;5036926;28;20045;-73
2023/01/28 10:38:23;;;;;;;10.07;6.33;;;;;;;12.63;37.34;103271.78;5049303;28;20025;-73
2023/01/28 10:40:49;;;;;;;7.40;5.37;;;;;;;10.86;39.72;103278.88;5039643;28;20047;-73
2023/01/28 10:43:21;;;;;;;9.87;5.50;;;;;;;12.39;38.06;103265.19;5038588;28;20029;-73
2023/01/28 10:46:11;;;;;;;8.82;5.72;;;;;;;12.33;37.52;103266.78;5032313;28;20025;-73
2023/01/28 10:48:55;;;;;;;9.60;5.63;;;;;;;12.98;36.61;103263.72;5058413;28;20142;-73
2023/01/28 10:51:39;;;;;;;11.90;6.50;;;;;;;12.25;37.44;103270.97;5047651;28;20040;-74
2023/01/28 10:54:18;;;;;;;8.50;5.70;;;;;;;12.83;37.31;103266.03;5045035;28;20534;-73
2023/01/28 10:56:44;;;;;;;10.23;6.20;;;;;;;12.84;36.81;103266.06;5040599;28;20040;-74
2023/01/28 10:59:30;;;;;;;9.90;5.87;;;;;;;12.35;37.28;103250.25;5040621;28;20029;-73
2023/01/28 11:02:04;;;;;;;8.73;5.87;;;;;;;12.28;36.50;103248.34;5036423;28;20036;-72
2023/01/28 11:04:32;;;;;;;8.63;6.07;;;;;;;12.47;37.43;103227.72;5070605;28;20025;-73
2023/01/28 11:07:00;;;;;;;9.13;6.17;;;;;;;13.20;36.38;103222.06;5030539;28;20616;-73
2023/01/28 11:09:31;;;;;;;9.37;5.93;;;;;;;13.29;36.52;103210.88;5045501;28;20061;-73
2023/01/28 11:11:58;;;;;;;9.33;5.50;;;;;;;12.16;37.47;103214.88;5046197;28;20432;-73
2023/01/28 11:14:26;;;;;;;10.40;6.27;;;;;;;12.10;37.98;103211.22;5047266;28;20025;-73
2023/01/28 11:16:55;;;;;;;12.47;6.87;;;;;;;11.84;38.75;103190.53;5048485;28;20033;-73
2023/01/28 11:19:27;;;;;;;7.47;5.40;;;;;;;12.35;37.78;103184.69;5047974;28;20537;-73
2023/01/28 11:21:55;;;;;;;9.90;5.50;;;;;;;11.78;39.29;103185.19;5048735;28;20388;-73
2023/01/28 11:24:32;;;;;;;9.90;5.93;;;;;;;11.44;39.94;103197.47;5048276;28;20148;-73
2023/01/28 11:27:12;;;;;;;8.70;5.47;;;;;;;11.61;39.89;103169.97;5050590;28;20029;-73
2023/01/28 11:29:38;;;;;;;8.93;5.90;;;;;;;11.38;40.47;103167.66;5048801;28;20611;-73
2023/01/28 11:32:06;;;;;;;8.13;5.20;;;;;;;11.93;39.84;103167.16;5045261;28;20520;-73
2023/01/28 11:34:33;;;;;;;9.80;5.37;;;;;;;12.10;38.55;103158.81;5048142;28;20792;-72
2023/01/28 11:37:11;;;;;;;10.10;5.70;;;;;;;12.21;38.67;103158.19;5049318;28;20424;-73
2023/01/28 11:39:36;;;;;;;7.80;5.23;;;;;;;11.53;39.55;103140.09;5082335;28;20033;-73
2023/01/28 11:42:09;;;;;;;6.40;4.60;;;;;;;11.82;39.62;103138.09;5047486;28;20031;-73
2023/01/28 11:44:34;;;;;;;7.88;5.13;;;;;;;10.82;40.58;103164.53;5049875;28;20036;-72
2023/01/28 11:47:03;;;;;;;6.90;4.77;;;;;;;11.68;38.89;103150.03;5035594;28;20486;-73
2023/01/28 11:49:59;;;;;;;8.67;5.30;;;;;;;11.81;38.81;103151.16;5045568;28;20037;-73
2023/01/28 11:52:36;;;;;;;11.30;6.03;;;;;;;11.75;39.24;103151.94;5039079;28;20063;-72
2023/01/28 11:55:35;;;;;;;11.43;5.07;;;;;;;12.52;38.40;103168.38;5045549;28;20036;-73
2023/01/28 11:58:18;;;;;;;9.90;6.43;;;;;;;12.23;38.79;103166.06;5048231;28;20035;-72
2023/01/28 12:01:11;;;;;;;11.02;6.10;;;;;;;12.55;38.66;103168.44;5049701;28;20432;-72
2023/01/28 12:03:52;;;;;;;7.68;4.70;;;;;;;12.56;36.98;103181.56;5043134;28;20037;-72